sensor_id;sensor_type;location;lat;lon;timestamp;pressure;altitude;pressure_sealevel;temperature;humidity
12913;BME280;6524;51.368;11.984;2022-08-11T07:14:20;101119.19;;;25.94;45.20
12913;BME280;6524;51.368;11.984;2022-08-11T07:19:43;101113.44;;;27.10;43.12
12913;BME280;6524;51.368;11.984;2022-08-11T07:25:10;101120.38;;;29.02;38.52
12913;BME280;6524;51.368;11.984;2022-08-11T07:30:31;101120.78;;;33.39;30.93
12913;BME280;6524;51.368;11.984;2022-08-11T07:35:42;101134.69;;;35.72;27.52
12913;BME280;6524;51.368;11.984;2022-08-11T07:40:44;101129.84;;;37.33;25.45
12913;BME280;6524;51.368;11.984;2022-08-11T07:45:45;101146.09;;;38.52;23.74
12913;BME280;6524;51.368;11.984;2022-08-11T07:51:04;101142.78;;;35.93;26.38
12913;BME280;6524;51.368;11.984;2022-08-11T07:56:24;101138.47;;;32.00;31.61
12913;BME280;6524;51.368;11.984;2022-08-11T08:01:25;101126.22;;;30.82;34.23
12913;BME280;6524;51.368;11.984;2022-08-11T08:06:45;101129.94;;;30.20;34.91
12913;BME280;6524;51.368;11.984;2022-08-11T08:12:05;101126.50;;;30.36;34.29
12913;BME280;6524;51.368;11.984;2022-08-11T08:17:25;101123.34;;;30.41;34.16
12913;BME280;6524;51.368;11.984;2022-08-11T08:22:49;101116.47;;;30.89;33.88
12913;BME280;6524;51.368;11.984;2022-08-11T08:27:53;101116.69;;;31.12;33.30
12913;BME280;6524;51.368;11.984;2022-08-11T08:32:54;101112.34;;;31.36;32.81
12913;BME280;6524;51.368;11.984;2022-08-11T08:37:57;101110.47;;;31.77;32.63
12913;BME280;6524;51.368;11.984;2022-08-11T08:43:06;101109.75;;;32.16;30.60
12913;BME280;6524;51.368;11.984;2022-08-11T08:48:16;101108.16;;;32.77;30.10
12913;BME280;6524;51.368;11.984;2022-08-11T08:53:22;101101.41;;;32.81;30.11
12913;BME280;6524;51.368;11.984;2022-08-11T08:58:23;101099.66;;;33.20;28.51
12913;BME280;6524;51.368;11.984;2022-08-11T09:03:25;101092.03;;;33.23;29.16
12913;BME280;6524;51.368;11.984;2022-08-11T09:08:30;101091.03;;;33.39;28.30
12913;BME280;6524;51.368;11.984;2022-08-11T09:13:32;101091.81;;;33.85;27.43
12913;BME280;6524;51.368;11.984;2022-08-11T09:18:33;101097.09;;;34.02;26.06
12913;BME280;6524;51.368;11.984;2022-08-11T09:23:35;101091.50;;;33.43;27.31
12913;BME280;6524;51.368;11.984;2022-08-11T09:28:54;101088.75;;;33.89;27.13
12913;BME280;6524;51.368;11.984;2022-08-11T09:33:57;101079.03;;;33.79;26.53
12913;BME280;6524;51.368;11.984;2022-08-11T09:38:59;101087.16;;;33.94;26.24
12913;BME280;6524;51.368;11.984;2022-08-11T09:44:18;101072.78;;;34.53;26.40
12913;BME280;6524;51.368;11.984;2022-08-11T09:49:37;101082.34;;;35.28;24.98
12913;BME280;6524;51.368;11.984;2022-08-11T09:54:42;101082.34;;;35.28;24.21
12913;BME280;6524;51.368;11.984;2022-08-11T09:59:43;101068.56;;;35.51;24.37
12913;BME280;6524;51.368;11.984;2022-08-11T10:04:44;101064.16;;;34.64;24.40
12913;BME280;6524;51.368;11.984;2022-08-11T10:09:49;101069.09;;;35.40;24.04
12913;BME280;6524;51.368;11.984;2022-08-11T10:14:53;101062.16;;;36.22;23.72
12913;BME280;6524;51.368;11.984;2022-08-11T10:20:15;101052.34;;;36.21;23.85
12913;BME280;6524;51.368;11.984;2022-08-11T10:25:15;101052.69;;;36.04;23.94
12913;BME280;6524;51.368;11.984;2022-08-11T10:30:36;101041.50;;;36.34;23.22
12913;BME280;6524;51.368;11.984;2022-08-11T10:35:56;101032.16;;;36.43;23.29
12913;BME280;6524;51.368;11.984;2022-08-11T10:40:57;101032.22;;;36.56;23.12
12913;BME280;6524;51.368;11.984;2022-08-11T10:46:18;101027.31;;;37.26;22.07
12913;BME280;6524;51.368;11.984;2022-08-11T10:51:38;101027.19;;;35.71;23.67
12913;BME280;6524;51.368;11.984;2022-08-11T10:56:57;101017.06;;;36.34;23.20
12913;BME280;6524;51.368;11.984;2022-08-11T11:02:18;101024.16;;;37.03;22.50
12913;BME280;6524;51.368;11.984;2022-08-11T11:07:30;101013.44;;;36.81;22.73
12913;BME280;6524;51.368;11.984;2022-08-11T11:12:45;101005.75;;;37.12;22.74
12913;BME280;6524;51.368;11.984;2022-08-11T11:18:14;101008.38;;;37.78;21.95
12913;BME280;6524;51.368;11.984;2022-08-11T11:23:54;101000.09;;;37.33;22.03
12913;BME280;6524;51.368;11.984;2022-08-11T11:40:11;100977.03;;;37.62;22.05
12913;BME280;6524;51.368;11.984;2022-08-11T11:45:17;100976.75;;;37.84;22.13
12913;BME280;6524;51.368;11.984;2022-08-11T11:50:23;100973.28;;;37.43;21.42
12913;BME280;6524;51.368;11.984;2022-08-11T11:55:25;100974.13;;;37.50;21.40
12913;BME280;6524;51.368;11.984;2022-08-11T12:00:28;100974.50;;;37.61;21.56
12913;BME280;6524;51.368;11.984;2022-08-11T12:05:47;100965.19;;;38.02;20.67
12913;BME280;6524;51.368;11.984;2022-08-11T12:10:51;100955.53;;;38.06;20.68
12913;BME280;6524;51.368;11.984;2022-08-11T12:16:12;100953.31;;;38.28;20.41
12913;BME280;6524;51.368;11.984;2022-08-11T12:21:15;100952.84;;;38.69;19.81
12913;BME280;6524;51.368;11.984;2022-08-11T12:26:16;100945.81;;;38.86;19.77
12913;BME280;6524;51.368;11.984;2022-08-11T12:31:38;100941.56;;;38.91;19.98
12913;BME280;6524;51.368;11.984;2022-08-11T12:36:56;100945.00;;;39.29;18.68
12913;BME280;6524;51.368;11.984;2022-08-11T12:41:57;100939.09;;;39.51;19.63
12913;BME280;6524;51.368;11.984;2022-08-11T12:47:18;100933.00;;;40.04;18.84
12913;BME280;6524;51.368;11.984;2022-08-11T12:52:22;100920.66;;;40.13;19.17
12913;BME280;6524;51.368;11.984;2022-08-11T12:57:33;100916.13;;;39.59;19.28
12913;BME280;6524;51.368;11.984;2022-08-11T13:02:54;100917.22;;;38.96;19.68
12913;BME280;6524;51.368;11.984;2022-08-11T13:08:15;100908.41;;;38.94;19.51
12913;BME280;6524;51.368;11.984;2022-08-11T13:13:17;100910.09;;;38.63;19.85
12913;BME280;6524;51.368;11.984;2022-08-11T13:18:21;100914.78;;;38.81;19.40
12913;BME280;6524;51.368;11.984;2022-08-11T13:23:23;100903.75;;;38.69;19.99
12913;BME280;6524;51.368;11.984;2022-08-11T13:28:23;100892.97;;;38.56;19.13
12913;BME280;6524;51.368;11.984;2022-08-11T13:33:24;100876.78;;;37.97;19.87
12913;BME280;6524;51.368;11.984;2022-08-11T13:38:26;100876.34;;;38.01;19.59
12913;BME280;6524;51.368;11.984;2022-08-11T13:43:27;100869.47;;;37.46;20.08
12913;BME280;6524;51.368;11.984;2022-08-11T13:48:28;100868.31;;;37.02;21.17
12913;BME280;6524;51.368;11.984;2022-08-11T13:53:30;100854.81;;;37.41;20.78
12913;BME280;6524;51.368;11.984;2022-08-11T13:58:31;100849.50;;;36.81;20.63
12913;BME280;6524;51.368;11.984;2022-08-11T14:03:32;100840.31;;;36.55;21.10
12913;BME280;6524;51.368;11.984;2022-08-11T14:08:37;100832.06;;;37.22;20.62
12913;BME280;6524;51.368;11.984;2022-08-11T14:13:39;100829.78;;;37.19;21.07
12913;BME280;6524;51.368;11.984;2022-08-11T14:18:46;100813.38;;;35.59;22.50
12913;BME280;6524;51.368;11.984;2022-08-11T14:23:49;100820.44;;;36.22;22.32
12913;BME280;6524;51.368;11.984;2022-08-11T14:29:04;100824.41;;;36.72;21.28
12913;BME280;6524;51.368;11.984;2022-08-11T14:34:06;100819.56;;;36.94;21.24
12913;BME280;6524;51.368;11.984;2022-08-11T14:39:15;100815.63;;;36.24;21.83
12913;BME280;6524;51.368;11.984;2022-08-11T14:44:17;100811.22;;;36.23;22.00
12913;BME280;6524;51.368;11.984;2022-08-11T14:49:37;100806.13;;;35.66;22.40
12913;BME280;6524;51.368;11.984;2022-08-11T14:54:37;100802.41;;;36.01;21.66
12913;BME280;6524;51.368;11.984;2022-08-11T15:00:00;100791.72;;;35.73;22.16
12913;BME280;6524;51.368;11.984;2022-08-11T15:05:04;100795.34;;;35.38;22.05
12913;BME280;6524;51.368;11.984;2022-08-11T15:10:07;100790.28;;;35.29;22.67
12913;BME280;6524;51.368;11.984;2022-08-11T15:15:09;100783.63;;;35.31;22.94
12913;BME280;6524;51.368;11.984;2022-08-11T15:20:29;100779.28;;;35.02;23.62
12913;BME280;6524;51.368;11.984;2022-08-11T15:25:56;100776.13;;;34.57;24.14
12913;BME280;6524;51.368;11.984;2022-08-11T15:30:59;100771.56;;;34.15;24.43
12913;BME280;6524;51.368;11.984;2022-08-11T15:36:20;100763.28;;;34.16;24.84
12913;BME280;6524;51.368;11.984;2022-08-11T15:41:47;100763.44;;;33.93;24.90
12913;BME280;6524;51.368;11.984;2022-08-11T15:47:08;100760.41;;;33.60;24.48
12913;BME280;6524;51.368;11.984;2022-08-11T15:52:15;100762.91;;;33.47;24.30
12913;BME280;6524;51.368;11.984;2022-08-11T15:57:17;100752.06;;;33.25;25.01
12913;BME280;6524;51.368;11.984;2022-08-11T16:02:38;100760.75;;;33.06;25.23
12913;BME280;6524;51.368;11.984;2022-08-11T16:07:55;100750.50;;;33.16;25.50
12913;BME280;6524;51.368;11.984;2022-08-11T16:13:01;100747.53;;;32.81;25.85
12913;BME280;6524;51.368;11.984;2022-08-11T16:18:05;100742.13;;;32.81;26.67
12913;BME280;6524;51.368;11.984;2022-08-11T16:23:06;100733.72;;;32.76;26.02
12913;BME280;6524;51.368;11.984;2022-08-11T16:28:11;100736.03;;;32.64;26.20
12913;BME280;6524;51.368;11.984;2022-08-11T16:33:12;100730.91;;;32.84;25.40
12913;BME280;6524;51.368;11.984;2022-08-11T16:38:15;100724.47;;;32.56;25.78
12913;BME280;6524;51.368;11.984;2022-08-11T16:43:39;100720.63;;;32.35;25.63
12913;BME280;6524;51.368;11.984;2022-08-11T16:49:02;100717.13;;;32.12;26.45
12913;BME280;6524;51.368;11.984;2022-08-11T16:54:03;100724.22;;;32.13;26.38
12913;BME280;6524;51.368;11.984;2022-08-11T17:04:38;100720.66;;;32.12;26.33
12913;BME280;6524;51.368;11.984;2022-08-11T17:10:00;100716.91;;;31.98;25.94
12913;BME280;6524;51.368;11.984;2022-08-11T17:15:21;100714.22;;;31.98;26.08
12913;BME280;6524;51.368;11.984;2022-08-11T17:20:41;100716.28;;;31.88;26.80
12913;BME280;6524;51.368;11.984;2022-08-11T17:25:42;100710.44;;;31.85;27.20
12913;BME280;6524;51.368;11.984;2022-08-11T17:30:44;100704.63;;;31.73;27.20
12913;BME280;6524;51.368;11.984;2022-08-11T17:36:04;100709.50;;;31.46;27.90
12913;BME280;6524;51.368;11.984;2022-08-11T17:41:05;100705.84;;;31.39;27.38
12913;BME280;6524;51.368;11.984;2022-08-11T17:46:25;100709.94;;;31.27;28.38
12913;BME280;6524;51.368;11.984;2022-08-11T17:51:47;100719.13;;;31.09;28.28
12913;BME280;6524;51.368;11.984;2022-08-11T17:57:08;100716.09;;;31.04;28.23
12913;BME280;6524;51.368;11.984;2022-08-11T18:02:34;100719.91;;;30.87;28.62
12913;BME280;6524;51.368;11.984;2022-08-11T18:07:55;100718.56;;;30.75;29.11
12913;BME280;6524;51.368;11.984;2022-08-11T18:13:16;100722.97;;;30.59;29.55
12913;BME280;6524;51.368;11.984;2022-08-11T18:18:37;100727.03;;;30.47;30.07
12913;BME280;6524;51.368;11.984;2022-08-11T18:23:58;100724.00;;;30.42;30.14
12913;BME280;6524;51.368;11.984;2022-08-11T18:29:20;100734.94;;;30.24;30.10
12913;BME280;6524;51.368;11.984;2022-08-11T18:34:40;100736.44;;;30.02;30.59
12913;BME280;6524;51.368;11.984;2022-08-11T18:40:06;100743.50;;;29.87;30.82
12913;BME280;6524;51.368;11.984;2022-08-11T18:45:25;100734.41;;;29.63;31.62
12913;BME280;6524;51.368;11.984;2022-08-11T18:50:46;100735.69;;;29.43;31.67
12913;BME280;6524;51.368;11.984;2022-08-11T18:56:05;100739.13;;;29.27;31.86
12913;BME280;6524;51.368;11.984;2022-08-11T19:01:25;100738.50;;;28.99;32.60
12913;BME280;6524;51.368;11.984;2022-08-11T19:06:46;100734.31;;;28.70;32.66
12913;BME280;6524;51.368;11.984;2022-08-11T19:12:08;100738.63;;;28.63;33.88
12913;BME280;6524;51.368;11.984;2022-08-11T19:17:29;100745.59;;;28.48;34.08
12913;BME280;6524;51.368;11.984;2022-08-11T19:22:50;100744.91;;;28.28;34.77
12913;BME280;6524;51.368;11.984;2022-08-11T19:28:10;100744.56;;;28.05;34.95
12913;BME280;6524;51.368;11.984;2022-08-11T19:33:30;100755.72;;;27.82;35.36
12913;BME280;6524;51.368;11.984;2022-08-11T19:38:49;100761.00;;;27.74;36.06
12913;BME280;6524;51.368;11.984;2022-08-11T19:44:09;100765.78;;;27.53;36.18
12913;BME280;6524;51.368;11.984;2022-08-11T19:49:30;100766.81;;;27.42;36.14
12913;BME280;6524;51.368;11.984;2022-08-11T19:54:50;100767.59;;;27.34;36.02
12913;BME280;6524;51.368;11.984;2022-08-11T20:00:14;100766.41;;;27.09;36.63
12913;BME280;6524;51.368;11.984;2022-08-11T20:05:33;100764.06;;;26.96;36.75
12913;BME280;6524;51.368;11.984;2022-08-11T20:10:54;100765.53;;;26.81;37.18
12913;BME280;6524;51.368;11.984;2022-08-11T20:16:15;100768.94;;;26.73;36.73
12913;BME280;6524;51.368;11.984;2022-08-11T20:21:36;100765.06;;;26.48;36.88
12913;BME280;6524;51.368;11.984;2022-08-11T20:26:57;100767.84;;;26.37;36.84
12913;BME280;6524;51.368;11.984;2022-08-11T20:32:19;100766.47;;;26.14;37.84
12913;BME280;6524;51.368;11.984;2022-08-11T20:37:40;100767.16;;;25.96;37.58
12913;BME280;6524;51.368;11.984;2022-08-11T20:42:59;100760.34;;;25.73;38.34
12913;BME280;6524;51.368;11.984;2022-08-11T20:48:19;100761.31;;;25.52;38.47
12913;BME280;6524;51.368;11.984;2022-08-11T20:53:42;100761.13;;;25.34;39.10
12913;BME280;6524;51.368;11.984;2022-08-11T20:59:02;100765.44;;;25.26;39.51
12913;BME280;6524;51.368;11.984;2022-08-11T21:04:21;100767.75;;;25.09;39.95
12913;BME280;6524;51.368;11.984;2022-08-11T21:09:41;100775.69;;;25.21;40.17
12913;BME280;6524;51.368;11.984;2022-08-11T21:15:02;100776.47;;;25.11;41.13
12913;BME280;6524;51.368;11.984;2022-08-11T21:20:24;100782.16;;;24.97;41.80
12913;BME280;6524;51.368;11.984;2022-08-11T21:25:46;100779.00;;;24.82;42.91
12913;BME280;6524;51.368;11.984;2022-08-11T21:31:07;100785.72;;;24.77;42.57
12913;BME280;6524;51.368;11.984;2022-08-11T21:36:28;100790.31;;;24.75;42.47
12913;BME280;6524;51.368;11.984;2022-08-11T21:41:48;100797.75;;;24.71;41.95
12913;BME280;6524;51.368;11.984;2022-08-11T21:47:10;100804.31;;;24.46;42.43
12913;BME280;6524;51.368;11.984;2022-08-11T21:52:30;100796.25;;;24.57;42.29
12913;BME280;6524;51.368;11.984;2022-08-11T21:57:53;100799.13;;;24.44;42.03
12913;BME280;6524;51.368;11.984;2022-08-11T22:03:14;100796.13;;;24.27;42.59
12913;BME280;6524;51.368;11.984;2022-08-11T22:08:33;100797.88;;;24.16;43.11
12913;BME280;6524;51.368;11.984;2022-08-11T22:13:52;100802.00;;;24.09;43.07
12913;BME280;6524;51.368;11.984;2022-08-11T22:19:13;100799.34;;;24.09;42.61
12913;BME280;6524;51.368;11.984;2022-08-11T22:24:33;100796.50;;;24.01;42.00
12913;BME280;6524;51.368;11.984;2022-08-11T22:29:53;100809.34;;;23.85;43.07
12913;BME280;6524;51.368;11.984;2022-08-11T22:35:12;100809.84;;;23.56;42.48
12913;BME280;6524;51.368;11.984;2022-08-11T22:40:32;100809.41;;;23.51;42.74
12913;BME280;6524;51.368;11.984;2022-08-11T22:45:52;100813.38;;;23.34;42.87
12913;BME280;6524;51.368;11.984;2022-08-11T22:51:13;100807.59;;;23.29;42.48
12913;BME280;6524;51.368;11.984;2022-08-11T22:56:32;100808.09;;;23.00;42.83
12913;BME280;6524;51.368;11.984;2022-08-11T23:01:52;100808.13;;;22.87;43.34
12913;BME280;6524;51.368;11.984;2022-08-11T23:07:11;100817.06;;;22.75;43.59
12913;BME280;6524;51.368;11.984;2022-08-11T23:12:31;100813.63;;;22.62;44.06
12913;BME280;6524;51.368;11.984;2022-08-11T23:17:50;100816.00;;;22.43;44.61
12913;BME280;6524;51.368;11.984;2022-08-11T23:23:09;100810.66;;;22.31;44.86
12913;BME280;6524;51.368;11.984;2022-08-11T23:28:32;100816.44;;;22.12;45.86
12913;BME280;6524;51.368;11.984;2022-08-11T23:33:53;100802.50;;;21.98;45.68
12913;BME280;6524;51.368;11.984;2022-08-11T23:39:15;100811.59;;;21.82;46.01
12913;BME280;6524;51.368;11.984;2022-08-11T23:44:34;100807.91;;;21.72;46.65
12913;BME280;6524;51.368;11.984;2022-08-11T23:49:53;100808.81;;;21.60;46.65
12913;BME280;6524;51.368;11.984;2022-08-11T23:55:12;100809.69;;;21.47;47.31
